createdAt,value
2019-02-27T00:00:48.055Z,99.90
2019-02-27T00:03:20.297Z,99.90
2019-02-27T00:05:51.637Z,99.90
2019-02-27T00:08:26.568Z,99.90
2019-02-27T00:10:55.763Z,99.90
2019-02-27T00:13:26.782Z,99.90
2019-02-27T00:15:57.730Z,99.90
2019-02-27T00:18:29.691Z,99.90
2019-02-27T00:21:00.741Z,99.90
2019-02-27T00:23:33.124Z,99.90
2019-02-27T00:26:08.623Z,99.90
2019-02-27T00:28:37.119Z,99.90
2019-02-27T00:31:11.199Z,99.90
2019-02-27T00:33:40.965Z,99.90
2019-02-27T00:36:12.952Z,99.90
2019-02-27T00:38:44.666Z,99.90
2019-02-27T00:41:16.443Z,99.90
2019-02-27T00:43:47.770Z,99.90
2019-02-27T00:46:19.046Z,99.90
2019-02-27T00:48:52.410Z,99.90
2019-02-27T00:51:24.075Z,99.90
2019-02-27T00:53:55.926Z,99.90
2019-02-27T00:56:28.093Z,99.90
2019-02-27T00:59:00.935Z,99.90
2019-02-27T01:01:32.208Z,99.90
2019-02-27T01:04:03.151Z,99.90
2019-02-27T01:06:34.209Z,99.90
2019-02-27T01:09:07.776Z,99.90
2019-02-27T01:11:40.572Z,99.90
2019-02-27T01:14:11.746Z,99.90
2019-02-27T01:16:43.026Z,99.90
2019-02-27T01:19:14.589Z,99.90
2019-02-27T01:21:47.549Z,99.90
2019-02-27T01:24:19.178Z,99.90
2019-02-27T01:26:51.186Z,99.90
2019-02-27T01:29:23.932Z,99.90
2019-02-27T01:31:57.652Z,99.90
2019-02-27T01:34:28.926Z,99.90
2019-02-27T01:37:01.156Z,99.90
2019-02-27T01:39:32.622Z,99.90
2019-02-27T01:42:04.108Z,99.90
2019-02-27T01:44:35.401Z,99.90
2019-02-27T01:47:07.147Z,99.90
2019-02-27T01:49:38.499Z,99.90
2019-02-27T01:52:09.574Z,99.90
2019-02-27T01:54:41.207Z,99.90
2019-02-27T01:57:13.612Z,99.90
2019-02-27T01:59:44.716Z,99.90
2019-02-27T02:02:15.819Z,99.90
2019-02-27T02:04:47.003Z,99.90
2019-02-27T02:07:18.754Z,99.90
2019-02-27T02:09:52.175Z,99.90
2019-02-27T02:12:24.245Z,99.90
2019-02-27T02:14:58.726Z,99.90
2019-02-27T02:17:41.023Z,99.90
2019-02-27T02:20:42.185Z,99.90
2019-02-27T02:23:19.607Z,99.90
2019-02-27T02:26:10.880Z,99.90
2019-02-27T02:28:57.178Z,99.90
2019-02-27T02:31:41.708Z,99.90
2019-02-27T02:34:52.001Z,99.90
2019-02-27T02:37:33.697Z,99.90
2019-02-27T02:40:23.341Z,99.90
2019-02-27T02:43:26.353Z,99.90
2019-02-27T02:46:09.793Z,99.90
2019-02-27T02:49:06.456Z,99.90
2019-02-27T02:51:50.877Z,99.90
2019-02-27T02:55:00.818Z,99.90
2019-02-27T02:57:48.129Z,99.90
2019-02-27T03:00:52.983Z,99.90
2019-02-27T03:03:36.484Z,99.90
2019-02-27T03:06:34.731Z,99.90
2019-02-27T03:09:06.145Z,99.90
2019-02-27T03:11:54.812Z,99.90
2019-02-27T03:14:45.908Z,99.90
2019-02-27T03:17:25.344Z,99.90
2019-02-27T03:20:17.613Z,99.90
2019-02-27T03:23:15.760Z,99.90
2019-02-27T03:25:49.260Z,99.90
2019-02-27T03:28:41.099Z,99.90
2019-02-27T03:31:20.909Z,99.90
2019-02-27T03:34:19.105Z,99.90
2019-02-27T03:37:15.519Z,99.90
2019-02-27T03:40:19.962Z,99.90
2019-02-27T03:42:53.768Z,99.90
2019-02-27T03:45:47.138Z,99.90
2019-02-27T03:48:34.074Z,99.90
2019-02-27T03:51:24.339Z,99.90
2019-02-27T03:54:11.762Z,99.90
2019-02-27T03:57:06.968Z,99.90
2019-02-27T03:59:43.878Z,99.90
2019-02-27T04:02:49.807Z,99.90
2019-02-27T04:05:42.184Z,99.90
2019-02-27T04:08:32.126Z,99.90
2019-02-27T04:11:05.878Z,99.90
2019-02-27T04:13:35.523Z,99.90
2019-02-27T04:16:06.455Z,99.90
2019-02-27T04:21:08.357Z,99.90
2019-02-27T04:23:39.804Z,99.90
2019-02-27T04:26:11.256Z,99.90
2019-02-27T04:28:42.095Z,99.90
2019-02-27T04:31:13.028Z,99.90
2019-02-27T04:33:45.196Z,99.90
2019-02-27T04:36:16.008Z,99.90
2019-02-27T04:38:47.482Z,99.90
2019-02-27T04:41:18.735Z,99.90
2019-02-27T04:43:49.660Z,99.90
2019-02-27T04:46:21.555Z,99.90
2019-02-27T04:48:54.302Z,99.90
2019-02-27T04:51:25.240Z,99.90
2019-02-27T04:56:26.506Z,99.90
2019-02-27T04:58:57.440Z,99.90
2019-02-27T05:01:28.529Z,99.90
2019-02-27T05:04:01.510Z,99.90
2019-02-27T05:06:33.122Z,99.90
2019-02-27T05:09:05.887Z,99.90
2019-02-27T05:11:38.482Z,99.90
2019-02-27T05:14:09.417Z,99.90
2019-02-27T05:16:40.355Z,99.90
2019-02-27T05:19:11.298Z,99.90
2019-02-27T05:21:42.540Z,99.90
2019-02-27T05:24:13.478Z,99.90
2019-02-27T05:26:44.520Z,99.90
2019-02-27T05:29:15.893Z,99.90
2019-02-27T05:31:50.229Z,99.90
2019-02-27T05:34:21.022Z,99.90
2019-02-27T05:36:51.953Z,99.90
2019-02-27T05:39:23.009Z,99.90
2019-02-27T05:41:55.140Z,99.90
2019-02-27T05:44:26.302Z,99.90
2019-02-27T05:46:57.240Z,99.90
2019-02-27T05:49:28.156Z,99.90
2019-02-27T05:52:00.081Z,99.90
2019-02-27T05:54:32.380Z,99.90
2019-02-27T05:57:03.659Z,99.90
2019-02-27T05:59:35.411Z,99.90
2019-02-27T06:02:08.698Z,99.90
2019-02-27T06:04:39.030Z,99.90
2019-02-27T06:07:10.072Z,99.90
2019-02-27T06:09:41.454Z,99.90
2019-02-27T06:12:13.587Z,99.90
2019-02-27T06:14:44.523Z,99.90
2019-02-27T06:17:17.204Z,99.90
2019-02-27T06:19:48.042Z,99.90
2019-02-27T06:22:18.976Z,99.90
2019-02-27T06:24:49.910Z,99.90
2019-02-27T06:27:21.052Z,99.90
2019-02-27T06:29:51.993Z,99.90
2019-02-27T06:32:22.928Z,99.90
2019-02-27T06:34:53.867Z,99.90
2019-02-27T06:37:25.012Z,99.90
2019-02-27T06:39:55.953Z,99.90
2019-02-27T06:42:26.974Z,99.90
2019-02-27T06:44:58.134Z,99.90
2019-02-27T06:47:29.070Z,99.90
2019-02-27T06:50:00.249Z,99.90
2019-02-27T06:52:31.256Z,99.90
2019-02-27T06:55:02.171Z,99.90
2019-02-27T06:57:34.059Z,99.90
2019-02-27T07:00:10.523Z,99.90
2019-02-27T07:02:41.659Z,99.90
2019-02-27T07:05:13.488Z,99.90
2019-02-27T07:07:45.052Z,99.90
2019-02-27T07:10:19.483Z,99.90
2019-02-27T07:12:54.365Z,99.90
2019-02-27T07:15:23.268Z,99.90
2019-02-27T07:17:54.252Z,99.90
2019-02-27T07:20:25.366Z,99.90
2019-02-27T07:22:56.435Z,99.90
2019-02-27T07:25:27.375Z,99.90
2019-02-27T07:27:58.316Z,99.90
2019-02-27T07:30:29.350Z,99.90
2019-02-27T07:33:03.727Z,99.90
2019-02-27T07:35:33.668Z,99.90
2019-02-27T07:38:04.621Z,99.90
2019-02-27T07:40:35.553Z,99.90
2019-02-27T07:43:06.498Z,99.90
2019-02-27T07:45:37.312Z,99.90
2019-02-27T07:48:08.160Z,99.90
2019-02-27T07:50:39.105Z,99.90
2019-02-27T07:53:10.145Z,99.90
2019-02-27T07:55:41.492Z,99.90
2019-02-27T07:58:12.435Z,98.60
2019-02-27T08:00:47.071Z,97.60
2019-02-27T08:03:15.849Z,94.30
2019-02-27T08:05:46.784Z,93.40
2019-02-27T08:08:17.721Z,91.10
2019-02-27T08:10:48.766Z,93.30
2019-02-27T08:13:20.929Z,91.20
2019-02-27T08:15:51.866Z,90.00
2019-02-27T08:18:29.731Z,88.20
2019-02-27T08:20:55.410Z,90.10
2019-02-27T08:23:27.420Z,87.00
2019-02-27T08:26:04.742Z,80.80
2019-02-27T08:28:30.956Z,81.60
2019-02-27T08:31:01.894Z,78.20
2019-02-27T08:33:32.936Z,73.50
2019-02-27T08:36:03.956Z,71.30
2019-02-27T08:38:35.020Z,65.30
2019-02-27T08:41:06.060Z,65.10
2019-02-27T08:43:36.999Z,61.80
2019-02-27T08:46:09.063Z,66.80
2019-02-27T08:48:39.982Z,63.90
2019-02-27T08:51:10.982Z,63.00
2019-02-27T08:53:42.063Z,63.50
2019-02-27T08:56:13.133Z,59.30
2019-02-27T08:58:44.059Z,57.60
2019-02-27T09:01:15.613Z,55.00
2019-02-27T09:03:47.493Z,56.30
2019-02-27T09:06:19.510Z,57.00
2019-02-27T09:08:51.698Z,54.30
2019-02-27T09:11:24.049Z,57.40
2019-02-27T09:13:55.011Z,58.40
2019-02-27T09:16:26.126Z,54.60
2019-02-27T09:18:57.713Z,54.40
2019-02-27T09:21:30.078Z,55.20
2019-02-27T09:24:01.017Z,54.90
2019-02-27T09:26:36.043Z,52.20
2019-02-27T09:29:04.433Z,51.50
2019-02-27T09:31:37.793Z,53.50
2019-02-27T09:34:08.822Z,52.50
2019-02-27T09:36:43.005Z,52.30
2019-02-27T09:39:12.482Z,52.40
2019-02-27T09:41:46.888Z,50.90
2019-02-27T09:44:15.894Z,50.60
2019-02-27T09:46:46.830Z,48.30
2019-02-27T09:49:17.745Z,48.10
2019-02-27T09:51:49.689Z,47.50
2019-02-27T09:54:20.675Z,47.30
2019-02-27T09:56:51.584Z,47.00
2019-02-27T09:59:22.532Z,45.60
2019-02-27T10:01:53.484Z,45.90
2019-02-27T10:04:25.895Z,44.20
2019-02-27T10:06:56.902Z,46.10
2019-02-27T10:09:34.495Z,43.40
2019-02-27T10:12:02.771Z,44.70
2019-02-27T10:14:33.899Z,42.90
2019-02-27T10:17:06.753Z,44.40
2019-02-27T10:19:37.424Z,42.20
2019-02-27T10:22:08.468Z,40.80
2019-02-27T10:24:39.405Z,43.20
2019-02-27T10:27:10.341Z,42.80
2019-02-27T10:29:41.278Z,41.20
2019-02-27T10:32:13.318Z,41.30
2019-02-27T10:34:44.256Z,38.00
2019-02-27T10:37:18.163Z,37.80
2019-02-27T10:39:47.802Z,38.50
2019-02-27T10:42:20.887Z,37.90
2019-02-27T10:44:51.931Z,35.50
2019-02-27T10:47:22.772Z,38.40
2019-02-27T10:49:53.703Z,36.40
2019-02-27T10:52:25.562Z,36.50
2019-02-27T10:54:56.502Z,35.40
2019-02-27T10:57:31.588Z,32.50
2019-02-27T10:59:59.887Z,35.40
2019-02-27T11:02:30.853Z,35.50
2019-02-27T11:05:01.766Z,35.40
2019-02-27T11:07:34.700Z,34.60
2019-02-27T11:10:11.960Z,35.40
2019-02-27T11:12:44.750Z,35.70
2019-02-27T11:15:18.891Z,36.10
2019-02-27T11:17:50.406Z,34.80
2019-02-27T11:20:23.911Z,34.60
2019-02-27T11:22:54.847Z,34.20
2019-02-27T11:25:30.565Z,35.60
2019-02-27T11:28:01.978Z,33.80
2019-02-27T11:30:39.484Z,34.60
2019-02-27T11:33:10.924Z,35.60
2019-02-27T11:35:42.571Z,34.10
2019-02-27T11:38:13.883Z,31.80
2019-02-27T11:40:45.245Z,35.80
2019-02-27T11:43:18.234Z,36.30
2019-02-27T11:45:49.159Z,34.70
2019-02-27T11:48:20.404Z,35.20
2019-02-27T11:50:52.752Z,34.40
2019-02-27T11:53:23.715Z,32.30
2019-02-27T11:55:55.062Z,34.60
2019-02-27T11:58:28.319Z,33.20
2019-02-27T12:01:01.055Z,34.20
2019-02-27T12:03:33.371Z,32.80
2019-02-27T12:06:05.385Z,33.60
2019-02-27T12:08:37.949Z,34.60
2019-02-27T12:11:13.394Z,33.90
2019-02-27T12:13:43.307Z,34.90
2019-02-27T12:16:17.516Z,34.30
2019-02-27T12:18:47.623Z,32.70
2019-02-27T12:21:19.157Z,32.80
2019-02-27T12:23:50.452Z,34.70
2019-02-27T12:26:21.974Z,34.20
2019-02-27T12:28:53.673Z,32.20
2019-02-27T12:31:26.601Z,34.00
2019-02-27T12:34:02.214Z,31.40
2019-02-27T12:36:31.109Z,34.20
2019-02-27T12:39:02.666Z,34.30
2019-02-27T12:41:35.613Z,36.20
2019-02-27T12:44:08.132Z,32.60
2019-02-27T12:46:39.550Z,36.70
2019-02-27T12:49:10.914Z,34.80
2019-02-27T12:51:42.464Z,35.20
2019-02-27T12:54:14.538Z,33.10
2019-02-27T12:56:47.947Z,34.90
2019-02-27T12:59:20.033Z,34.10
2019-02-27T13:01:51.851Z,33.40
2019-02-27T13:04:23.418Z,34.10
2019-02-27T13:06:55.031Z,31.80
2019-02-27T13:09:27.826Z,33.80
2019-02-27T13:11:59.308Z,33.80
2019-02-27T13:14:32.929Z,35.60
2019-02-27T13:17:03.590Z,32.30
2019-02-27T13:19:38.513Z,33.70
2019-02-27T13:22:09.548Z,34.90
2019-02-27T13:24:40.917Z,34.60
2019-02-27T13:27:12.261Z,34.10
2019-02-27T13:29:44.572Z,34.60
2019-02-27T13:32:16.201Z,34.40
2019-02-27T13:34:48.313Z,34.70
2019-02-27T13:37:22.104Z,34.10
2019-02-27T13:39:53.373Z,33.80
2019-02-27T13:42:24.345Z,34.20
2019-02-27T13:44:56.279Z,35.00
2019-02-27T13:47:28.684Z,34.10
2019-02-27T13:50:01.324Z,34.40
2019-02-27T13:52:35.681Z,34.80
2019-02-27T13:55:11.201Z,35.30
2019-02-27T13:57:43.365Z,34.50
2019-02-27T14:00:21.019Z,35.90
2019-02-27T14:02:52.641Z,36.00
2019-02-27T14:05:25.186Z,35.40
2019-02-27T14:07:58.783Z,36.70
2019-02-27T14:10:34.437Z,34.50
2019-02-27T14:13:09.738Z,37.10
2019-02-27T14:15:40.614Z,36.50
2019-02-27T14:18:13.356Z,36.80
2019-02-27T14:20:45.232Z,38.30
2019-02-27T14:23:16.556Z,37.80
2019-02-27T14:25:47.818Z,37.10
2019-02-27T14:28:20.962Z,38.40
2019-02-27T14:30:53.281Z,38.20
2019-02-27T14:33:24.801Z,37.60
2019-02-27T14:35:57.488Z,39.50
2019-02-27T14:38:29.873Z,39.60
2019-02-27T14:41:02.502Z,40.90
2019-02-27T14:43:34.271Z,40.50
2019-02-27T14:46:05.826Z,40.70
2019-02-27T14:48:37.227Z,40.30
2019-02-27T14:51:11.025Z,41.50
2019-02-27T14:53:41.760Z,41.80
2019-02-27T14:56:12.852Z,42.80
2019-02-27T14:58:44.550Z,43.50
2019-02-27T15:01:15.958Z,44.30
2019-02-27T15:03:47.724Z,43.70
2019-02-27T15:06:19.246Z,43.60
2019-02-27T15:08:57.741Z,44.10
2019-02-27T15:11:25.548Z,46.70
2019-02-27T15:13:59.643Z,46.70
2019-02-27T15:16:31.532Z,46.50
2019-02-27T15:19:02.988Z,45.80
2019-02-27T15:21:34.271Z,47.50
2019-02-27T15:24:05.361Z,48.00
2019-02-27T15:26:45.037Z,49.30
2019-02-27T15:29:11.534Z,47.90
2019-02-27T15:31:42.934Z,54.90
2019-02-27T15:34:14.359Z,56.00
2019-02-27T15:36:45.488Z,57.60
2019-02-27T15:39:21.133Z,59.90
2019-02-27T15:41:53.640Z,61.10
2019-02-27T15:44:25.262Z,62.60
2019-02-27T15:46:56.636Z,64.40
2019-02-27T15:49:28.367Z,67.00
2019-02-27T15:52:00.329Z,70.40
2019-02-27T15:54:31.267Z,64.70
2019-02-27T15:57:02.307Z,64.50
2019-02-27T15:59:33.245Z,67.60
2019-02-27T16:02:05.617Z,68.60
2019-02-27T16:04:36.552Z,72.00
2019-02-27T16:07:07.493Z,73.10
2019-02-27T16:09:40.184Z,72.40
2019-02-27T16:12:10.902Z,71.90
2019-02-27T16:14:42.865Z,73.00
2019-02-27T16:17:14.623Z,74.20
2019-02-27T16:19:45.564Z,72.80
2019-02-27T16:22:16.501Z,77.00
2019-02-27T16:24:48.569Z,81.40
2019-02-27T16:27:19.606Z,80.60
2019-02-27T16:29:50.547Z,79.50
2019-02-27T16:32:21.483Z,77.90
2019-02-27T16:34:52.423Z,79.30
2019-02-27T16:37:23.364Z,82.20
2019-02-27T16:39:55.320Z,82.40
2019-02-27T16:42:26.467Z,79.40
2019-02-27T16:44:57.972Z,85.00
2019-02-27T16:47:29.162Z,81.20
2019-02-27T16:50:00.509Z,82.30
2019-02-27T16:52:32.652Z,84.00
2019-02-27T16:55:03.621Z,79.50
2019-02-27T16:57:35.533Z,85.40
2019-02-27T17:00:10.218Z,89.20
2019-02-27T17:02:42.162Z,91.20
2019-02-27T17:05:13.595Z,92.30
2019-02-27T17:07:44.551Z,93.30
2019-02-27T17:10:21.227Z,92.80
2019-02-27T17:12:52.370Z,92.80
2019-02-27T17:15:23.221Z,98.20
2019-02-27T17:17:54.347Z,99.90
2019-02-27T17:20:27.315Z,99.90
2019-02-27T17:22:58.478Z,99.90
2019-02-27T17:25:30.306Z,99.90
2019-02-27T17:28:02.646Z,99.90
2019-02-27T17:30:38.101Z,99.90
2019-02-27T17:33:10.500Z,99.90
2019-02-27T17:35:41.562Z,99.90
2019-02-27T17:38:13.743Z,99.90
2019-02-27T17:40:45.388Z,99.90
2019-02-27T17:43:17.546Z,99.90
2019-02-27T17:45:48.703Z,99.90
2019-02-27T17:48:19.618Z,99.90
2019-02-27T17:50:50.780Z,99.90
2019-02-27T17:53:22.899Z,99.90
2019-02-27T17:55:54.397Z,99.90
2019-02-27T17:58:25.437Z,99.90
2019-02-27T18:00:58.116Z,99.90
2019-02-27T18:03:30.431Z,99.90
2019-02-27T18:06:01.450Z,99.90
2019-02-27T18:08:33.082Z,99.90
2019-02-27T18:11:04.139Z,99.90
2019-02-27T18:13:36.209Z,99.90
2019-02-27T18:16:08.146Z,99.90
2019-02-27T18:18:43.332Z,99.90
2019-02-27T18:21:12.992Z,99.90
2019-02-27T18:23:43.933Z,99.90
2019-02-27T18:26:15.801Z,99.90
2019-02-27T18:28:47.550Z,99.90
2019-02-27T18:31:19.855Z,99.90
2019-02-27T18:33:51.067Z,99.90
2019-02-27T18:36:24.566Z,99.90
2019-02-27T18:39:01.695Z,99.90
2019-02-27T18:41:32.043Z,99.90
2019-02-27T18:44:04.471Z,99.90
2019-02-27T18:46:38.142Z,99.90
2019-02-27T18:49:10.365Z,99.90
2019-02-27T18:51:43.502Z,99.90
2019-02-27T18:54:14.439Z,99.90
2019-02-27T18:56:49.503Z,99.90
2019-02-27T18:59:20.969Z,99.90
2019-02-27T19:01:53.671Z,99.90
2019-02-27T19:04:25.539Z,99.90
2019-02-27T19:06:57.712Z,99.90
2019-02-27T19:09:32.364Z,99.90
2019-02-27T19:12:04.668Z,99.90
2019-02-27T19:14:37.479Z,99.90
2019-02-27T19:17:09.949Z,99.90
2019-02-27T19:19:41.362Z,99.90
2019-02-27T19:22:15.434Z,99.90
2019-02-27T19:24:47.537Z,99.90
2019-02-27T19:27:19.879Z,99.90
2019-02-27T19:29:52.252Z,99.90
2019-02-27T19:32:26.026Z,99.90
2019-02-27T19:34:58.339Z,99.90
2019-02-27T19:37:31.242Z,99.90
2019-02-27T19:40:03.779Z,99.90
2019-02-27T19:42:38.785Z,99.90
2019-02-27T19:45:12.204Z,99.90
2019-02-27T19:47:45.039Z,99.90
2019-02-27T19:50:17.760Z,99.90
2019-02-27T19:52:52.034Z,99.90
2019-02-27T19:55:27.297Z,99.90
2019-02-27T19:57:58.984Z,99.90
2019-02-27T20:00:35.123Z,99.90
2019-02-27T20:03:09.469Z,99.90
2019-02-27T20:05:45.281Z,99.90
2019-02-27T20:08:18.288Z,99.90
2019-02-27T20:10:53.869Z,99.90
2019-02-27T20:13:28.113Z,99.90
2019-02-27T20:16:02.152Z,99.90
2019-02-27T20:18:37.272Z,99.90
2019-02-27T20:21:10.655Z,99.90
2019-02-27T20:23:44.282Z,99.90
2019-02-27T20:26:20.047Z,99.90
2019-02-27T20:28:50.583Z,99.90
2019-02-27T20:31:23.612Z,99.90
2019-02-27T20:33:56.525Z,99.90
2019-02-27T20:36:31.898Z,99.90
2019-02-27T20:39:07.384Z,99.90
2019-02-27T20:41:43.917Z,99.90
2019-02-27T20:44:17.224Z,99.90
2019-02-27T20:46:50.691Z,99.90
2019-02-27T20:49:23.325Z,99.90
2019-02-27T20:51:55.798Z,99.90
2019-02-27T20:54:31.838Z,99.90
2019-02-27T20:57:03.691Z,99.90
2019-02-27T20:59:35.735Z,99.90
2019-02-27T21:02:07.514Z,99.90
2019-02-27T21:04:40.556Z,99.90
2019-02-27T21:07:12.368Z,99.90
2019-02-27T21:09:45.185Z,99.90
2019-02-27T21:12:18.325Z,99.90
2019-02-27T21:14:49.777Z,99.90
2019-02-27T21:17:21.866Z,99.90
2019-02-27T21:19:54.106Z,99.90
2019-02-27T21:22:27.818Z,99.90
2019-02-27T21:24:59.872Z,99.90
2019-02-27T21:27:33.141Z,99.90
2019-02-27T21:30:17.723Z,99.90
2019-02-27T21:32:47.357Z,99.90
2019-02-27T21:35:20.115Z,99.90
2019-02-27T21:37:51.363Z,99.90
2019-02-27T21:40:24.282Z,99.90
2019-02-27T21:42:58.905Z,99.90
2019-02-27T21:45:37.159Z,99.90
2019-02-27T21:48:05.132Z,99.90
2019-02-27T21:50:39.560Z,99.90
2019-02-27T21:53:15.049Z,99.90
2019-02-27T21:55:46.527Z,99.90
2019-02-27T21:58:20.634Z,99.90
2019-02-27T22:00:51.370Z,99.90
2019-02-27T22:03:24.037Z,99.90
2019-02-27T22:08:28.512Z,99.90
2019-02-27T22:11:00.096Z,99.90
2019-02-27T22:13:33.015Z,99.90
2019-02-27T22:16:04.581Z,99.90
2019-02-27T22:18:35.861Z,99.90
2019-02-27T22:21:07.412Z,99.90
2019-02-27T22:23:38.353Z,99.90
2019-02-27T22:26:09.650Z,99.90
2019-02-27T22:28:41.969Z,99.90
2019-02-27T22:31:13.378Z,99.90
2019-02-27T22:33:46.199Z,99.90
2019-02-27T22:36:17.546Z,99.90
2019-02-27T22:38:49.083Z,99.90
2019-02-27T22:41:20.450Z,99.90
2019-02-27T22:43:53.210Z,99.90
2019-02-27T22:46:24.931Z,99.90
2019-02-27T22:48:56.231Z,99.90
2019-02-27T22:51:27.586Z,99.90
2019-02-27T22:54:02.211Z,99.90
2019-02-27T22:56:33.651Z,99.90
2019-02-27T22:59:04.824Z,99.90
2019-02-27T23:01:39.214Z,99.90
2019-02-27T23:04:10.543Z,99.90
2019-02-27T23:06:43.749Z,99.90
2019-02-27T23:09:14.994Z,99.90
2019-02-27T23:11:46.902Z,99.90
2019-02-27T23:14:19.642Z,99.90
2019-02-27T23:16:51.397Z,99.90
2019-02-27T23:19:24.429Z,99.90
2019-02-27T23:21:57.570Z,99.90
2019-02-27T23:24:28.937Z,99.90
2019-02-27T23:27:00.125Z,99.90
2019-02-27T23:29:31.116Z,99.90
2019-02-27T23:32:03.279Z,99.90
2019-02-27T23:34:35.411Z,99.90
2019-02-27T23:37:06.479Z,99.90
2019-02-27T23:39:39.677Z,99.90
2019-02-27T23:42:10.846Z,99.90
2019-02-27T23:44:42.747Z,99.90
2019-02-27T23:47:13.951Z,99.90
2019-02-27T23:49:44.957Z,99.90
2019-02-27T23:52:15.894Z,99.90
2019-02-27T23:54:47.629Z,99.90
2019-02-27T23:57:18.589Z,99.90
2019-02-27T23:59:49.530Z,99.90
